sim
Sign-in with your pilot id or email,
or register
Callsign
Passwort

Schedule Details

Flight Number: RYR5714 (2)
Departure: Weeze Airport (EDLV) at 12:30
Arrival: Thessaloniki International Airport (LGTS) at 15:15
Route: Ryanair Passenger Schedule. Enter filed route here before submitting Pirep.

Weather Information
Getting current METAR information for EDLV 252120Z 14006KT CAVOK 11/11 Q1009
Getting current METAR information for LGTS 252120Z 00000KT CAVOK 15/12 Q1020 NOSIG

Schedule Frequency

Route Map